sensor_id;sensor_type;location;lat;lon;timestamp;temperature;humidity
48535;DHT22;34323;52.022;5.686;2023-07-13T00:01:36;23.20;99.90
48535;DHT22;34323;52.022;5.686;2023-07-13T00:04:34;23.20;99.90
48535;DHT22;34323;52.022;5.686;2023-07-13T00:08:01;23.00;99.90
48535;DHT22;34323;52.022;5.686;2023-07-13T00:10:48;22.50;99.90
48535;DHT22;34323;52.022;5.686;2023-07-13T00:13:43;22.30;99.90
48535;DHT22;34323;52.022;5.686;2023-07-13T00:20:13;22.40;99.90
48535;DHT22;34323;52.022;5.686;2023-07-13T00:22:48;22.30;99.90
48535;DHT22;34323;52.022;5.686;2023-07-13T00:28:42;22.20;99.90
48535;DHT22;34323;52.022;5.686;2023-07-13T00:31:28;22.00;99.90
48535;DHT22;34323;52.022;5.686;2023-07-13T00:34:40;22.30;99.90
48535;DHT22;34323;52.022;5.686;2023-07-13T00:40:58;22.10;99.90
48535;DHT22;34323;52.022;5.686;2023-07-13T00:44:11;22.20;99.90
48535;DHT22;34323;52.022;5.686;2023-07-13T00:46:59;22.50;99.90
48535;DHT22;34323;52.022;5.686;2023-07-13T00:49:48;22.60;99.90
48535;DHT22;34323;52.022;5.686;2023-07-13T00:52:52;22.50;99.90
48535;DHT22;34323;52.022;5.686;2023-07-13T00:55:50;22.50;99.90
48535;DHT22;34323;52.022;5.686;2023-07-13T00:58:35;22.40;99.90
48535;DHT22;34323;52.022;5.686;2023-07-13T01:01:08;22.50;99.90
48535;DHT22;34323;52.022;5.686;2023-07-13T01:03:40;22.60;99.90
48535;DHT22;34323;52.022;5.686;2023-07-13T01:06:20;22.50;99.90
48535;DHT22;34323;52.022;5.686;2023-07-13T01:08:52;22.70;99.90
48535;DHT22;34323;52.022;5.686;2023-07-13T01:11:40;22.60;99.90
48535;DHT22;34323;52.022;5.686;2023-07-13T01:14:48;22.10;99.90
48535;DHT22;34323;52.022;5.686;2023-07-13T01:17:28;21.80;99.90
48535;DHT22;34323;52.022;5.686;2023-07-13T01:23:37;21.80;99.90
48535;DHT22;34323;52.022;5.686;2023-07-13T01:27:00;21.70;99.90
48535;DHT22;34323;52.022;5.686;2023-07-13T01:32:54;21.80;99.90
48535;DHT22;34323;52.022;5.686;2023-07-13T01:35:53;21.90;99.90
48535;DHT22;34323;52.022;5.686;2023-07-13T01:38:27;21.80;99.90
48535;DHT22;34323;52.022;5.686;2023-07-13T01:44:13;22.00;99.90
48535;DHT22;34323;52.022;5.686;2023-07-13T01:47:16;22.20;99.90
48535;DHT22;34323;52.022;5.686;2023-07-13T01:50:05;22.10;99.90
48535;DHT22;34323;52.022;5.686;2023-07-13T01:52:54;22.10;99.90
48535;DHT22;34323;52.022;5.686;2023-07-13T01:55:52;22.00;99.90
48535;DHT22;34323;52.022;5.686;2023-07-13T01:59:00;22.00;99.90
48535;DHT22;34323;52.022;5.686;2023-07-13T02:01:42;22.30;99.90
48535;DHT22;34323;52.022;5.686;2023-07-13T02:05:01;22.30;99.90
48535;DHT22;34323;52.022;5.686;2023-07-13T02:11:37;22.40;99.90
48535;DHT22;34323;52.022;5.686;2023-07-13T02:14:21;21.70;99.90
48535;DHT22;34323;52.022;5.686;2023-07-13T02:26:00;21.80;99.90
48535;DHT22;34323;52.022;5.686;2023-07-13T02:32:03;22.00;99.90
48535;DHT22;34323;52.022;5.686;2023-07-13T02:42:07;21.40;99.90
48535;DHT22;34323;52.022;5.686;2023-07-13T02:51:44;21.50;99.90
48535;DHT22;34323;52.022;5.686;2023-07-13T02:57:52;21.60;99.90
48535;DHT22;34323;52.022;5.686;2023-07-13T03:04:22;21.50;99.90
48535;DHT22;34323;52.022;5.686;2023-07-13T03:11:03;21.00;99.90
48535;DHT22;34323;52.022;5.686;2023-07-13T03:13:29;20.60;99.90
48535;DHT22;34323;52.022;5.686;2023-07-13T03:15:54;20.10;99.90
48535;DHT22;34323;52.022;5.686;2023-07-13T03:18:20;20.10;99.90
48535;DHT22;34323;52.022;5.686;2023-07-13T03:20:45;20.30;99.90
48535;DHT22;34323;52.022;5.686;2023-07-13T03:23:11;20.60;99.90
48535;DHT22;34323;52.022;5.686;2023-07-13T03:25:37;20.60;99.90
48535;DHT22;34323;52.022;5.686;2023-07-13T03:28:02;20.60;99.90
48535;DHT22;34323;52.022;5.686;2023-07-13T03:30:29;20.20;99.90
48535;DHT22;34323;52.022;5.686;2023-07-13T03:32:55;20.10;99.90
48535;DHT22;34323;52.022;5.686;2023-07-13T03:35:20;20.40;99.90
48535;DHT22;34323;52.022;5.686;2023-07-13T03:37:46;20.50;99.90
48535;DHT22;34323;52.022;5.686;2023-07-13T03:40:12;20.80;99.90
48535;DHT22;34323;52.022;5.686;2023-07-13T03:42:38;20.80;99.90
48535;DHT22;34323;52.022;5.686;2023-07-13T03:45:04;21.00;99.90
48535;DHT22;34323;52.022;5.686;2023-07-13T03:47:29;20.90;99.90
48535;DHT22;34323;52.022;5.686;2023-07-13T03:49:55;21.00;99.90
48535;DHT22;34323;52.022;5.686;2023-07-13T03:52:20;21.00;99.90
48535;DHT22;34323;52.022;5.686;2023-07-13T03:54:46;20.90;99.90
48535;DHT22;34323;52.022;5.686;2023-07-13T03:57:12;21.00;99.90
48535;DHT22;34323;52.022;5.686;2023-07-13T03:59:37;20.90;99.90
48535;DHT22;34323;52.022;5.686;2023-07-13T04:02:03;20.80;99.90
48535;DHT22;34323;52.022;5.686;2023-07-13T04:04:30;20.60;99.90
48535;DHT22;34323;52.022;5.686;2023-07-13T04:06:57;20.70;99.90
48535;DHT22;34323;52.022;5.686;2023-07-13T04:09:24;20.80;99.90
48535;DHT22;34323;52.022;5.686;2023-07-13T04:11:50;20.60;99.90
48535;DHT22;34323;52.022;5.686;2023-07-13T04:14:16;20.50;99.90
48535;DHT22;34323;52.022;5.686;2023-07-13T04:16:42;20.60;99.90
48535;DHT22;34323;52.022;5.686;2023-07-13T04:19:09;20.90;99.90
48535;DHT22;34323;52.022;5.686;2023-07-13T04:21:36;20.90;99.90
48535;DHT22;34323;52.022;5.686;2023-07-13T04:24:02;20.80;99.90
48535;DHT22;34323;52.022;5.686;2023-07-13T04:26:28;20.90;99.90
48535;DHT22;34323;52.022;5.686;2023-07-13T04:28:55;21.00;99.90
48535;DHT22;34323;52.022;5.686;2023-07-13T04:31:21;21.00;99.90
48535;DHT22;34323;52.022;5.686;2023-07-13T04:33:47;21.10;99.90
48535;DHT22;34323;52.022;5.686;2023-07-13T04:36:13;21.20;99.90
48535;DHT22;34323;52.022;5.686;2023-07-13T04:38:39;21.00;99.90
48535;DHT22;34323;52.022;5.686;2023-07-13T04:41:06;20.60;99.90
48535;DHT22;34323;52.022;5.686;2023-07-13T04:43:33;20.30;99.90
48535;DHT22;34323;52.022;5.686;2023-07-13T04:46:04;20.30;99.90
48535;DHT22;34323;52.022;5.686;2023-07-13T04:48:30;20.40;99.90
48535;DHT22;34323;52.022;5.686;2023-07-13T04:50:57;19.90;99.90
48535;DHT22;34323;52.022;5.686;2023-07-13T04:53:24;19.70;99.90
48535;DHT22;34323;52.022;5.686;2023-07-13T04:55:49;19.70;99.90
48535;DHT22;34323;52.022;5.686;2023-07-13T04:58:15;20.00;99.90
48535;DHT22;34323;52.022;5.686;2023-07-13T05:00:41;20.40;99.90
48535;DHT22;34323;52.022;5.686;2023-07-13T05:03:06;20.10;99.90
48535;DHT22;34323;52.022;5.686;2023-07-13T05:05:32;19.70;99.90
48535;DHT22;34323;52.022;5.686;2023-07-13T05:07:58;19.70;99.90
48535;DHT22;34323;52.022;5.686;2023-07-13T05:10:23;19.70;99.90
48535;DHT22;34323;52.022;5.686;2023-07-13T05:12:49;19.90;99.90
48535;DHT22;34323;52.022;5.686;2023-07-13T05:15:15;20.10;99.90
48535;DHT22;34323;52.022;5.686;2023-07-13T05:17:41;20.10;99.90
48535;DHT22;34323;52.022;5.686;2023-07-13T05:20:08;20.30;99.90
48535;DHT22;34323;52.022;5.686;2023-07-13T05:22:34;20.00;99.90
48535;DHT22;34323;52.022;5.686;2023-07-13T05:25:01;19.80;99.90
48535;DHT22;34323;52.022;5.686;2023-07-13T05:27:27;19.90;99.90
48535;DHT22;34323;52.022;5.686;2023-07-13T05:29:52;20.10;99.90
48535;DHT22;34323;52.022;5.686;2023-07-13T05:32:18;20.20;99.90
48535;DHT22;34323;52.022;5.686;2023-07-13T05:34:44;20.10;99.90
48535;DHT22;34323;52.022;5.686;2023-07-13T05:37:10;20.10;99.90
48535;DHT22;34323;52.022;5.686;2023-07-13T05:39:35;20.10;99.90
48535;DHT22;34323;52.022;5.686;2023-07-13T05:42:02;19.80;99.90
48535;DHT22;34323;52.022;5.686;2023-07-13T05:44:27;20.00;99.90
48535;DHT22;34323;52.022;5.686;2023-07-13T05:46:53;19.50;99.90
48535;DHT22;34323;52.022;5.686;2023-07-13T05:49:20;19.30;99.90
48535;DHT22;34323;52.022;5.686;2023-07-13T05:51:46;19.70;99.90
48535;DHT22;34323;52.022;5.686;2023-07-13T05:54:12;20.10;99.90
48535;DHT22;34323;52.022;5.686;2023-07-13T05:56:37;20.50;99.90
48535;DHT22;34323;52.022;5.686;2023-07-13T05:59:03;20.70;99.90
48535;DHT22;34323;52.022;5.686;2023-07-13T06:01:29;20.90;99.90
48535;DHT22;34323;52.022;5.686;2023-07-13T06:03:55;21.10;99.90
48535;DHT22;34323;52.022;5.686;2023-07-13T06:06:20;20.80;99.90
48535;DHT22;34323;52.022;5.686;2023-07-13T06:08:46;20.50;99.90
48535;DHT22;34323;52.022;5.686;2023-07-13T06:11:18;20.10;99.90
48535;DHT22;34323;52.022;5.686;2023-07-13T06:13:44;20.00;99.90
48535;DHT22;34323;52.022;5.686;2023-07-13T06:16:10;20.30;99.90
48535;DHT22;34323;52.022;5.686;2023-07-13T06:18:37;20.40;99.90
48535;DHT22;34323;52.022;5.686;2023-07-13T06:21:29;20.50;99.90
48535;DHT22;34323;52.022;5.686;2023-07-13T06:23:55;20.40;99.90
48535;DHT22;34323;52.022;5.686;2023-07-13T06:26:21;20.60;99.90
48535;DHT22;34323;52.022;5.686;2023-07-13T06:28:47;20.70;99.90
48535;DHT22;34323;52.022;5.686;2023-07-13T06:31:14;20.80;99.90
48535;DHT22;34323;52.022;5.686;2023-07-13T06:33:40;20.80;99.90
48535;DHT22;34323;52.022;5.686;2023-07-13T06:36:06;21.10;99.90
48535;DHT22;34323;52.022;5.686;2023-07-13T06:38:33;21.40;99.90
48535;DHT22;34323;52.022;5.686;2023-07-13T06:40:59;21.50;99.90
48535;DHT22;34323;52.022;5.686;2023-07-13T06:43:25;21.60;99.90
48535;DHT22;34323;52.022;5.686;2023-07-13T06:45:53;21.50;99.90
48535;DHT22;34323;52.022;5.686;2023-07-13T06:48:20;21.50;99.90
48535;DHT22;34323;52.022;5.686;2023-07-13T06:50:47;21.20;99.90
48535;DHT22;34323;52.022;5.686;2023-07-13T06:53:13;20.80;99.90
48535;DHT22;34323;52.022;5.686;2023-07-13T06:55:39;20.90;99.90
48535;DHT22;34323;52.022;5.686;2023-07-13T06:58:06;21.10;99.90
48535;DHT22;34323;52.022;5.686;2023-07-13T07:00:32;21.20;99.90
48535;DHT22;34323;52.022;5.686;2023-07-13T07:02:58;21.40;99.90
48535;DHT22;34323;52.022;5.686;2023-07-13T07:05:23;21.70;99.90
48535;DHT22;34323;52.022;5.686;2023-07-13T07:07:50;21.90;99.90
48535;DHT22;34323;52.022;5.686;2023-07-13T07:10:16;22.10;99.90
48535;DHT22;34323;52.022;5.686;2023-07-13T07:12:41;22.00;99.90
48535;DHT22;34323;52.022;5.686;2023-07-13T07:15:07;21.80;99.90
48535;DHT22;34323;52.022;5.686;2023-07-13T07:17:33;21.40;99.90
48535;DHT22;34323;52.022;5.686;2023-07-13T07:19:58;21.50;99.90
48535;DHT22;34323;52.022;5.686;2023-07-13T07:22:24;21.60;99.90
48535;DHT22;34323;52.022;5.686;2023-07-13T07:24:55;21.80;99.90
48535;DHT22;34323;52.022;5.686;2023-07-13T07:27:21;21.10;99.90
48535;DHT22;34323;52.022;5.686;2023-07-13T07:29:47;21.20;99.90
48535;DHT22;34323;52.022;5.686;2023-07-13T07:32:12;21.50;99.90
48535;DHT22;34323;52.022;5.686;2023-07-13T07:34:38;22.10;99.90
48535;DHT22;34323;52.022;5.686;2023-07-13T07:37:03;22.10;99.90
48535;DHT22;34323;52.022;5.686;2023-07-13T07:39:29;22.00;99.90
48535;DHT22;34323;52.022;5.686;2023-07-13T07:41:55;21.60;99.90
48535;DHT22;34323;52.022;5.686;2023-07-13T07:44:21;21.60;99.90
48535;DHT22;34323;52.022;5.686;2023-07-13T07:46:47;22.00;99.90
48535;DHT22;34323;52.022;5.686;2023-07-13T07:49:12;22.50;99.90
48535;DHT22;34323;52.022;5.686;2023-07-13T07:51:38;22.40;99.90
48535;DHT22;34323;52.022;5.686;2023-07-13T07:54:04;22.10;99.90
48535;DHT22;34323;52.022;5.686;2023-07-13T07:56:30;22.20;99.90
48535;DHT22;34323;52.022;5.686;2023-07-13T07:58:56;22.10;99.90
48535;DHT22;34323;52.022;5.686;2023-07-13T08:01:22;22.30;99.90
48535;DHT22;34323;52.022;5.686;2023-07-13T08:03:48;21.90;99.90
48535;DHT22;34323;52.022;5.686;2023-07-13T08:06:13;22.10;99.90
48535;DHT22;34323;52.022;5.686;2023-07-13T08:08:39;22.20;99.90
48535;DHT22;34323;52.022;5.686;2023-07-13T08:11:06;22.50;99.90
48535;DHT22;34323;52.022;5.686;2023-07-13T08:13:32;22.70;99.90
48535;DHT22;34323;52.022;5.686;2023-07-13T08:15:58;23.00;99.90
48535;DHT22;34323;52.022;5.686;2023-07-13T08:18:24;23.00;99.90
48535;DHT22;34323;52.022;5.686;2023-07-13T08:20:50;23.10;99.90
48535;DHT22;34323;52.022;5.686;2023-07-13T08:23:15;23.10;99.90
48535;DHT22;34323;52.022;5.686;2023-07-13T08:25:42;22.90;99.90
48535;DHT22;34323;52.022;5.686;2023-07-13T08:28:08;22.30;99.90
48535;DHT22;34323;52.022;5.686;2023-07-13T08:30:33;22.20;99.90
48535;DHT22;34323;52.022;5.686;2023-07-13T08:32:59;21.90;99.90
48535;DHT22;34323;52.022;5.686;2023-07-13T08:35:25;22.20;99.90
48535;DHT22;34323;52.022;5.686;2023-07-13T08:37:51;22.40;99.90
48535;DHT22;34323;52.022;5.686;2023-07-13T08:40:17;22.70;99.90
48535;DHT22;34323;52.022;5.686;2023-07-13T08:42:48;23.00;99.90
48535;DHT22;34323;52.022;5.686;2023-07-13T08:48:01;23.30;99.90
48535;DHT22;34323;52.022;5.686;2023-07-13T08:50:33;23.00;99.90
48535;DHT22;34323;52.022;5.686;2023-07-13T08:53:02;22.60;99.90
48535;DHT22;34323;52.022;5.686;2023-07-13T08:55:34;22.50;99.90
48535;DHT22;34323;52.022;5.686;2023-07-13T08:58:13;22.80;99.90
48535;DHT22;34323;52.022;5.686;2023-07-13T09:00:55;23.00;99.90
48535;DHT22;34323;52.022;5.686;2023-07-13T09:03:30;23.60;99.90
48535;DHT22;34323;52.022;5.686;2023-07-13T09:05:58;23.90;99.90
48535;DHT22;34323;52.022;5.686;2023-07-13T09:08:48;23.80;99.90
48535;DHT22;34323;52.022;5.686;2023-07-13T09:14:33;23.90;99.90
48535;DHT22;34323;52.022;5.686;2023-07-13T09:17:08;24.30;99.90
48535;DHT22;34323;52.022;5.686;2023-07-13T09:19:36;24.40;99.90
48535;DHT22;34323;52.022;5.686;2023-07-13T09:22:03;24.80;99.90
48535;DHT22;34323;52.022;5.686;2023-07-13T09:27:18;24.80;99.90
48535;DHT22;34323;52.022;5.686;2023-07-13T09:29:53;24.40;99.90
48535;DHT22;34323;52.022;5.686;2023-07-13T09:32:21;23.70;99.90
48535;DHT22;34323;52.022;5.686;2023-07-13T09:34:54;23.60;99.90
48535;DHT22;34323;52.022;5.686;2023-07-13T09:37:31;23.90;99.90
48535;DHT22;34323;52.022;5.686;2023-07-13T09:39:59;23.90;99.90
48535;DHT22;34323;52.022;5.686;2023-07-13T09:42:26;23.50;99.90
48535;DHT22;34323;52.022;5.686;2023-07-13T09:49:54;23.20;99.90
48535;DHT22;34323;52.022;5.686;2023-07-13T09:52:21;23.20;99.90
48535;DHT22;34323;52.022;5.686;2023-07-13T09:54:52;23.80;99.90
48535;DHT22;34323;52.022;5.686;2023-07-13T09:57:23;24.30;99.90
48535;DHT22;34323;52.022;5.686;2023-07-13T09:59:51;24.50;99.90
48535;DHT22;34323;52.022;5.686;2023-07-13T10:02:43;24.90;99.90
48535;DHT22;34323;52.022;5.686;2023-07-13T10:05:14;24.90;99.90
48535;DHT22;34323;52.022;5.686;2023-07-13T10:07:44;24.90;99.90
48535;DHT22;34323;52.022;5.686;2023-07-13T10:10:20;25.40;99.90
48535;DHT22;34323;52.022;5.686;2023-07-13T10:12:47;25.30;99.90
48535;DHT22;34323;52.022;5.686;2023-07-13T10:15:24;25.60;99.90
48535;DHT22;34323;52.022;5.686;2023-07-13T10:17:55;26.00;99.90
48535;DHT22;34323;52.022;5.686;2023-07-13T10:20:21;25.80;99.90
48535;DHT22;34323;52.022;5.686;2023-07-13T10:23:04;25.00;99.90
48535;DHT22;34323;52.022;5.686;2023-07-13T10:25:38;24.40;99.90
48535;DHT22;34323;52.022;5.686;2023-07-13T10:28:13;24.30;99.90
48535;DHT22;34323;52.022;5.686;2023-07-13T10:30:46;24.50;99.90
48535;DHT22;34323;52.022;5.686;2023-07-13T10:33:13;25.10;99.90
48535;DHT22;34323;52.022;5.686;2023-07-13T10:35:42;25.60;99.90
48535;DHT22;34323;52.022;5.686;2023-07-13T10:38:14;26.10;99.90
48535;DHT22;34323;52.022;5.686;2023-07-13T10:40:50;26.20;99.90
48535;DHT22;34323;52.022;5.686;2023-07-13T10:43:22;26.20;99.90
48535;DHT22;34323;52.022;5.686;2023-07-13T10:45:49;26.30;99.90
48535;DHT22;34323;52.022;5.686;2023-07-13T10:48:17;26.20;99.90
48535;DHT22;34323;52.022;5.686;2023-07-13T10:50:45;26.30;99.90
48535;DHT22;34323;52.022;5.686;2023-07-13T10:53:20;25.80;99.90
48535;DHT22;34323;52.022;5.686;2023-07-13T10:58:23;25.50;99.90
48535;DHT22;34323;52.022;5.686;2023-07-13T11:03:34;25.30;99.90
48535;DHT22;34323;52.022;5.686;2023-07-13T11:06:17;25.10;99.90
48535;DHT22;34323;52.022;5.686;2023-07-13T11:08:58;25.30;99.90
48535;DHT22;34323;52.022;5.686;2023-07-13T11:11:35;25.10;99.90
48535;DHT22;34323;52.022;5.686;2023-07-13T11:14:03;25.40;99.90
48535;DHT22;34323;52.022;5.686;2023-07-13T11:16:46;25.60;99.90
48535;DHT22;34323;52.022;5.686;2023-07-13T11:24:57;25.30;99.90
48535;DHT22;34323;52.022;5.686;2023-07-13T11:33:04;26.30;99.90
48535;DHT22;34323;52.022;5.686;2023-07-13T11:35:41;26.30;99.90
48535;DHT22;34323;52.022;5.686;2023-07-13T11:38:58;26.20;99.90
48535;DHT22;34323;52.022;5.686;2023-07-13T11:41:15;26.40;99.90
48535;DHT22;34323;52.022;5.686;2023-07-13T11:43:41;26.20;99.90
48535;DHT22;34323;52.022;5.686;2023-07-13T11:46:22;26.50;99.90
48535;DHT22;34323;52.022;5.686;2023-07-13T11:48:49;26.70;99.90
48535;DHT22;34323;52.022;5.686;2023-07-13T11:51:35;27.00;99.90
48535;DHT22;34323;52.022;5.686;2023-07-13T11:54:26;27.20;99.90
48535;DHT22;34323;52.022;5.686;2023-07-13T11:56:53;27.60;99.90
48535;DHT22;34323;52.022;5.686;2023-07-13T11:59:20;27.10;99.90
48535;DHT22;34323;52.022;5.686;2023-07-13T12:01:51;26.50;99.90
48535;DHT22;34323;52.022;5.686;2023-07-13T12:04:22;26.80;99.90
48535;DHT22;34323;52.022;5.686;2023-07-13T12:06:58;27.30;99.90
48535;DHT22;34323;52.022;5.686;2023-07-13T12:09:28;27.50;99.90
48535;DHT22;34323;52.022;5.686;2023-07-13T12:11:55;27.40;99.90
48535;DHT22;34323;52.022;5.686;2023-07-13T12:14:21;27.00;99.90
48535;DHT22;34323;52.022;5.686;2023-07-13T12:16:50;27.00;99.90
48535;DHT22;34323;52.022;5.686;2023-07-13T12:19:21;27.00;99.90
48535;DHT22;34323;52.022;5.686;2023-07-13T12:21:48;26.60;99.90
48535;DHT22;34323;52.022;5.686;2023-07-13T12:24:19;26.00;99.90
48535;DHT22;34323;52.022;5.686;2023-07-13T12:26:52;25.80;99.90
48535;DHT22;34323;52.022;5.686;2023-07-13T12:29:18;26.00;99.90
48535;DHT22;34323;52.022;5.686;2023-07-13T12:31:46;26.10;99.90
48535;DHT22;34323;52.022;5.686;2023-07-13T12:34:23;26.00;99.90
48535;DHT22;34323;52.022;5.686;2023-07-13T12:36:52;26.00;99.90
48535;DHT22;34323;52.022;5.686;2023-07-13T12:41:50;26.10;99.90
48535;DHT22;34323;52.022;5.686;2023-07-13T12:44:18;26.30;99.90
48535;DHT22;34323;52.022;5.686;2023-07-13T12:47:05;26.40;99.90
48535;DHT22;34323;52.022;5.686;2023-07-13T12:49:41;26.90;99.90
48535;DHT22;34323;52.022;5.686;2023-07-13T12:52:21;27.10;99.90
48535;DHT22;34323;52.022;5.686;2023-07-13T12:54:55;27.50;99.90
48535;DHT22;34323;52.022;5.686;2023-07-13T12:57:25;27.80;99.90
48535;DHT22;34323;52.022;5.686;2023-07-13T12:59:53;27.90;99.90
48535;DHT22;34323;52.022;5.686;2023-07-13T13:02:30;28.00;99.90
48535;DHT22;34323;52.022;5.686;2023-07-13T13:04:58;28.20;99.90
48535;DHT22;34323;52.022;5.686;2023-07-13T13:07:24;28.40;99.90
48535;DHT22;34323;52.022;5.686;2023-07-13T13:09:50;27.80;99.90
48535;DHT22;34323;52.022;5.686;2023-07-13T13:12:15;27.30;99.90
48535;DHT22;34323;52.022;5.686;2023-07-13T13:14:42;27.30;99.90
48535;DHT22;34323;52.022;5.686;2023-07-13T13:17:24;27.40;99.90
48535;DHT22;34323;52.022;5.686;2023-07-13T13:19:50;27.40;99.90
48535;DHT22;34323;52.022;5.686;2023-07-13T13:22:19;27.10;99.90
48535;DHT22;34323;52.022;5.686;2023-07-13T13:24:45;26.70;99.90
48535;DHT22;34323;52.022;5.686;2023-07-13T13:27:16;26.40;99.90
48535;DHT22;34323;52.022;5.686;2023-07-13T13:29:43;26.70;99.90
48535;DHT22;34323;52.022;5.686;2023-07-13T13:32:12;26.80;99.90
48535;DHT22;34323;52.022;5.686;2023-07-13T13:34:38;27.40;99.90
48535;DHT22;34323;52.022;5.686;2023-07-13T13:37:16;28.30;99.90
48535;DHT22;34323;52.022;5.686;2023-07-13T13:39:44;29.10;99.90
48535;DHT22;34323;52.022;5.686;2023-07-13T13:42:10;29.60;99.90
48535;DHT22;34323;52.022;5.686;2023-07-13T13:44:35;30.00;99.90
48535;DHT22;34323;52.022;5.686;2023-07-13T13:47:01;30.20;99.90
48535;DHT22;34323;52.022;5.686;2023-07-13T13:49:29;30.00;99.90
48535;DHT22;34323;52.022;5.686;2023-07-13T13:51:55;30.30;99.90
48535;DHT22;34323;52.022;5.686;2023-07-13T13:54:23;30.80;99.90
48535;DHT22;34323;52.022;5.686;2023-07-13T13:56:50;31.10;99.90
48535;DHT22;34323;52.022;5.686;2023-07-13T13:59:16;31.00;99.90
48535;DHT22;34323;52.022;5.686;2023-07-13T14:01:44;31.20;99.90
48535;DHT22;34323;52.022;5.686;2023-07-13T14:04:21;32.00;99.90
48535;DHT22;34323;52.022;5.686;2023-07-13T14:06:47;32.10;99.90
48535;DHT22;34323;52.022;5.686;2023-07-13T14:09:18;32.00;99.90
48535;DHT22;34323;52.022;5.686;2023-07-13T14:11:45;32.10;99.90
48535;DHT22;34323;52.022;5.686;2023-07-13T14:14:21;32.20;99.90
48535;DHT22;34323;52.022;5.686;2023-07-13T14:16:47;32.20;99.90
48535;DHT22;34323;52.022;5.686;2023-07-13T14:19:18;32.20;99.90
48535;DHT22;34323;52.022;5.686;2023-07-13T14:21:44;32.80;99.90
48535;DHT22;34323;52.022;5.686;2023-07-13T14:24:10;32.50;99.90
48535;DHT22;34323;52.022;5.686;2023-07-13T14:26:38;32.00;99.90
48535;DHT22;34323;52.022;5.686;2023-07-13T14:29:11;32.50;99.90
48535;DHT22;34323;52.022;5.686;2023-07-13T14:31:38;32.90;99.90
48535;DHT22;34323;52.022;5.686;2023-07-13T14:34:04;33.70;99.90
48535;DHT22;34323;52.022;5.686;2023-07-13T14:36:36;34.00;99.90
48535;DHT22;34323;52.022;5.686;2023-07-13T14:39:12;33.70;99.90
48535;DHT22;34323;52.022;5.686;2023-07-13T14:41:38;33.00;99.60
48535;DHT22;34323;52.022;5.686;2023-07-13T14:44:19;32.70;99.90
48535;DHT22;34323;52.022;5.686;2023-07-13T14:46:47;31.10;99.90
48535;DHT22;34323;52.022;5.686;2023-07-13T14:49:25;29.20;99.90
48535;DHT22;34323;52.022;5.686;2023-07-13T14:51:51;28.40;99.90
48535;DHT22;34323;52.022;5.686;2023-07-13T14:54:17;28.60;99.90
48535;DHT22;34323;52.022;5.686;2023-07-13T14:56:43;28.80;99.90
48535;DHT22;34323;52.022;5.686;2023-07-13T14:59:08;28.40;99.90
48535;DHT22;34323;52.022;5.686;2023-07-13T15:01:35;28.30;99.90
48535;DHT22;34323;52.022;5.686;2023-07-13T15:04:01;28.60;99.90
48535;DHT22;34323;52.022;5.686;2023-07-13T15:06:27;28.80;99.90
48535;DHT22;34323;52.022;5.686;2023-07-13T15:08:54;29.00;99.90
48535;DHT22;34323;52.022;5.686;2023-07-13T15:11:21;28.50;99.90
48535;DHT22;34323;52.022;5.686;2023-07-13T15:13:47;28.30;99.90
48535;DHT22;34323;52.022;5.686;2023-07-13T15:16:17;28.60;99.90
48535;DHT22;34323;52.022;5.686;2023-07-13T15:18:44;28.40;99.90
48535;DHT22;34323;52.022;5.686;2023-07-13T15:21:11;28.10;99.90
48535;DHT22;34323;52.022;5.686;2023-07-13T15:23:40;27.50;99.90
48535;DHT22;34323;52.022;5.686;2023-07-13T15:26:11;27.90;99.90
48535;DHT22;34323;52.022;5.686;2023-07-13T15:28:38;28.30;99.90
48535;DHT22;34323;52.022;5.686;2023-07-13T15:31:08;28.70;99.90
48535;DHT22;34323;52.022;5.686;2023-07-13T15:33:41;28.90;99.90
48535;DHT22;34323;52.022;5.686;2023-07-13T15:36:07;28.50;99.90
48535;DHT22;34323;52.022;5.686;2023-07-13T15:38:35;28.20;99.90
48535;DHT22;34323;52.022;5.686;2023-07-13T15:41:19;28.10;99.90
48535;DHT22;34323;52.022;5.686;2023-07-13T15:43:47;27.80;99.90
48535;DHT22;34323;52.022;5.686;2023-07-13T15:46:12;27.70;99.90
48535;DHT22;34323;52.022;5.686;2023-07-13T15:48:39;27.80;99.90
48535;DHT22;34323;52.022;5.686;2023-07-13T15:51:08;27.60;99.90
48535;DHT22;34323;52.022;5.686;2023-07-13T15:53:38;27.60;99.90
48535;DHT22;34323;52.022;5.686;2023-07-13T15:56:28;27.10;99.90
48535;DHT22;34323;52.022;5.686;2023-07-13T15:58:55;26.90;99.90
48535;DHT22;34323;52.022;5.686;2023-07-13T16:01:22;27.00;99.90
48535;DHT22;34323;52.022;5.686;2023-07-13T16:03:49;27.40;99.90
48535;DHT22;34323;52.022;5.686;2023-07-13T16:06:26;27.80;99.90
48535;DHT22;34323;52.022;5.686;2023-07-13T16:08:53;27.70;99.90
48535;DHT22;34323;52.022;5.686;2023-07-13T16:11:24;27.60;99.90
48535;DHT22;34323;52.022;5.686;2023-07-13T16:13:52;27.40;99.90
48535;DHT22;34323;52.022;5.686;2023-07-13T16:16:23;27.20;99.90
48535;DHT22;34323;52.022;5.686;2023-07-13T16:18:56;27.30;99.90
48535;DHT22;34323;52.022;5.686;2023-07-13T16:21:27;27.40;99.90
48535;DHT22;34323;52.022;5.686;2023-07-13T16:23:54;27.60;99.90
48535;DHT22;34323;52.022;5.686;2023-07-13T16:26:22;27.50;99.90
48535;DHT22;34323;52.022;5.686;2023-07-13T16:28:49;27.90;99.90
48535;DHT22;34323;52.022;5.686;2023-07-13T16:31:15;28.20;99.90
48535;DHT22;34323;52.022;5.686;2023-07-13T16:33:40;27.80;99.90
48535;DHT22;34323;52.022;5.686;2023-07-13T16:36:12;27.30;99.90
48535;DHT22;34323;52.022;5.686;2023-07-13T16:38:39;27.60;99.90
48535;DHT22;34323;52.022;5.686;2023-07-13T16:41:04;27.50;99.90
48535;DHT22;34323;52.022;5.686;2023-07-13T16:43:34;27.80;99.90
48535;DHT22;34323;52.022;5.686;2023-07-13T16:46:00;27.50;99.90
48535;DHT22;34323;52.022;5.686;2023-07-13T16:48:29;27.30;99.90
48535;DHT22;34323;52.022;5.686;2023-07-13T16:50:57;27.00;99.90
48535;DHT22;34323;52.022;5.686;2023-07-13T16:53:30;27.30;99.90
48535;DHT22;34323;52.022;5.686;2023-07-13T16:55:57;27.60;99.90
48535;DHT22;34323;52.022;5.686;2023-07-13T16:58:27;27.60;99.90
48535;DHT22;34323;52.022;5.686;2023-07-13T17:00:57;27.50;99.90
48535;DHT22;34323;52.022;5.686;2023-07-13T17:03:23;27.40;99.90
48535;DHT22;34323;52.022;5.686;2023-07-13T17:05:52;27.00;99.90
48535;DHT22;34323;52.022;5.686;2023-07-13T17:08:23;27.10;99.90
48535;DHT22;34323;52.022;5.686;2023-07-13T17:10:52;27.20;99.90
48535;DHT22;34323;52.022;5.686;2023-07-13T17:13:20;27.00;99.90
48535;DHT22;34323;52.022;5.686;2023-07-13T17:15:48;26.90;99.90
48535;DHT22;34323;52.022;5.686;2023-07-13T17:18:16;27.20;99.90
48535;DHT22;34323;52.022;5.686;2023-07-13T17:20:44;26.90;99.90
48535;DHT22;34323;52.022;5.686;2023-07-13T17:23:20;26.90;99.90
48535;DHT22;34323;52.022;5.686;2023-07-13T17:25:47;27.00;99.90
48535;DHT22;34323;52.022;5.686;2023-07-13T17:28:13;26.90;99.90
48535;DHT22;34323;52.022;5.686;2023-07-13T17:30:41;26.80;99.90